createdAt,value
2023-04-08T00:00:07.785Z,85.75
2023-04-08T00:05:29.746Z,85.40
2023-04-08T00:10:51.590Z,85.72
2023-04-08T00:16:13.513Z,85.05
2023-04-08T00:21:35.453Z,85.40
2023-04-08T00:26:57.346Z,84.80
2023-04-08T00:32:19.262Z,85.15
2023-04-08T00:37:41.207Z,84.73
2023-04-08T00:43:03.116Z,85.55
2023-04-08T00:48:25.197Z,84.22
2023-04-08T00:53:47.288Z,84.00
2023-04-08T00:59:09.313Z,84.21
2023-04-08T01:04:56.019Z,83.35
2023-04-08T01:10:22.543Z,83.27
2023-04-08T01:15:45.353Z,84.18
2023-04-08T01:21:08.044Z,84.41
2023-04-08T01:26:30.871Z,84.19
2023-04-08T01:31:54.085Z,84.53
2023-04-08T01:37:16.710Z,84.73
2023-04-08T01:42:40.635Z,84.59
2023-04-08T01:48:03.435Z,84.51
2023-04-08T01:53:25.586Z,85.13
2023-04-08T01:58:52.713Z,85.82
2023-04-08T02:04:14.992Z,85.47
2023-04-08T02:09:37.089Z,86.45
2023-04-08T02:14:59.125Z,87.71
2023-04-08T02:20:27.311Z,88.24
2023-04-08T02:25:50.392Z,88.34
2023-04-08T02:31:13.048Z,90.81
2023-04-08T02:36:35.194Z,89.57
2023-04-08T02:41:57.140Z,89.30
2023-04-08T02:47:18.984Z,91.39
2023-04-08T02:52:40.829Z,93.14
2023-04-08T02:58:02.733Z,93.26
2023-04-08T03:03:24.674Z,94.90
2023-04-08T03:08:46.594Z,94.20
2023-04-08T03:14:08.575Z,94.27
2023-04-08T03:19:30.442Z,95.37
2023-04-08T03:24:52.463Z,97.06
2023-04-08T03:30:14.411Z,97.27
2023-04-08T03:35:36.717Z,97.73
2023-04-08T03:40:58.704Z,97.88
2023-04-08T03:46:20.589Z,99.61
2023-04-08T03:51:42.496Z,99.47
2023-04-08T03:57:04.444Z,100.00
2023-04-08T04:02:26.569Z,100.00
2023-04-08T04:07:48.673Z,99.84
2023-04-08T04:13:10.641Z,98.58
2023-04-08T04:18:32.537Z,98.62
2023-04-08T04:23:54.751Z,98.59
2023-04-08T04:29:16.641Z,91.97
2023-04-08T04:34:38.752Z,83.36
2023-04-08T04:40:00.579Z,74.22
2023-04-08T04:45:22.437Z,62.19
2023-04-08T04:50:44.425Z,58.04
2023-04-08T04:56:06.491Z,51.38
2023-04-08T05:01:28.478Z,48.04
2023-04-08T05:06:50.615Z,44.74
2023-04-08T05:12:12.479Z,45.16
2023-04-08T05:17:34.354Z,45.94
2023-04-08T05:22:56.353Z,52.45
2023-04-08T05:28:18.237Z,56.35
2023-04-08T05:33:40.035Z,57.02
2023-04-08T05:39:03.321Z,56.61
2023-04-08T05:44:25.468Z,49.51
2023-04-08T05:49:47.887Z,41.34
2023-04-08T05:55:11.760Z,34.71
2023-04-08T06:00:33.903Z,32.21
2023-04-08T06:05:55.814Z,31.80
2023-04-08T06:11:18.310Z,28.32
2023-04-08T06:16:40.193Z,30.42
2023-04-08T06:22:02.076Z,29.37
2023-04-08T06:27:24.028Z,28.77
2023-04-08T06:32:45.961Z,26.31
2023-04-08T06:38:07.825Z,28.78
2023-04-08T06:43:29.709Z,28.41
2023-04-08T06:48:51.869Z,27.77
2023-04-08T06:54:13.970Z,29.27
2023-04-08T06:59:35.805Z,26.75
2023-04-08T07:04:57.675Z,25.92
2023-04-08T07:10:19.625Z,24.63
2023-04-08T07:15:41.650Z,23.21
2023-04-08T07:21:03.683Z,25.54
2023-04-08T07:26:25.576Z,25.60
2023-04-08T07:31:47.472Z,23.82
2023-04-08T07:37:09.396Z,25.94
2023-04-08T07:42:31.256Z,26.16
2023-04-08T07:47:53.126Z,27.09
2023-04-08T07:53:15.106Z,27.00
2023-04-08T07:58:37.172Z,26.81
2023-04-08T08:03:59.515Z,25.95
2023-04-08T08:09:21.660Z,25.04
2023-04-08T08:14:43.566Z,27.16
2023-04-08T08:20:06.327Z,26.27
2023-04-08T08:25:28.201Z,25.77
2023-04-08T08:30:50.050Z,29.29
2023-04-08T08:36:12.164Z,26.11
2023-04-08T08:41:34.694Z,27.80
2023-04-08T08:46:56.725Z,27.50
2023-04-08T08:52:18.823Z,26.87
2023-04-08T08:57:40.700Z,27.47
2023-04-08T09:03:19.120Z,24.86
2023-04-08T09:08:41.471Z,26.29
2023-04-08T09:14:03.540Z,26.50
2023-04-08T09:19:25.394Z,27.54
2023-04-08T09:24:47.613Z,25.48
2023-04-08T09:30:18.804Z,27.26
2023-04-08T09:35:40.768Z,27.75
2023-04-08T09:41:07.560Z,31.25
2023-04-08T09:46:36.700Z,30.21
2023-04-08T09:52:07.395Z,29.47
2023-04-08T09:57:50.491Z,31.23
2023-04-08T10:03:30.063Z,28.79
2023-04-08T10:08:52.091Z,34.02
2023-04-08T10:14:13.972Z,34.12
2023-04-08T10:19:40.044Z,34.91
2023-04-08T10:25:17.658Z,36.86
2023-04-08T10:30:41.465Z,35.78
2023-04-08T10:36:11.863Z,37.17
2023-04-08T10:41:33.859Z,37.61
2023-04-08T10:46:55.863Z,38.11
2023-04-08T10:52:17.781Z,38.39
2023-04-08T10:57:39.718Z,38.82
2023-04-08T11:03:07.005Z,40.50
2023-04-08T11:08:33.862Z,40.61
2023-04-08T11:13:57.103Z,39.77
2023-04-08T11:19:20.037Z,39.03
2023-04-08T11:24:42.337Z,39.50
2023-04-08T11:30:04.852Z,39.34
2023-04-08T11:35:30.282Z,38.13
2023-04-08T11:40:56.283Z,38.90
2023-04-08T11:46:18.257Z,39.01
2023-04-08T11:52:00.121Z,39.32
2023-04-08T11:57:30.891Z,37.92
2023-04-08T12:02:52.865Z,39.53
2023-04-08T12:08:14.824Z,38.83
2023-04-08T12:13:36.680Z,38.67
2023-04-08T12:18:58.534Z,39.89
2023-04-08T12:24:20.469Z,39.65
2023-04-08T12:29:42.484Z,39.22
2023-04-08T12:35:04.711Z,37.94
2023-04-08T12:40:26.516Z,37.56
2023-04-08T12:45:48.411Z,38.08
2023-04-08T12:51:10.406Z,38.34
2023-04-08T12:56:32.452Z,38.20
2023-04-08T13:01:54.572Z,38.13
2023-04-08T13:07:16.516Z,38.14
2023-04-08T13:12:38.346Z,37.17
2023-04-08T13:18:00.292Z,36.51
2023-04-08T13:23:22.123Z,37.52
2023-04-08T13:28:55.901Z,38.49
2023-04-08T13:34:18.911Z,38.76
2023-04-08T13:39:40.740Z,38.48
2023-04-08T13:45:02.733Z,37.43
2023-04-08T13:50:24.697Z,39.09
2023-04-08T13:55:46.511Z,40.90
2023-04-08T14:01:08.392Z,41.20
2023-04-08T14:06:30.230Z,42.29
2023-04-08T14:11:52.086Z,42.25
2023-04-08T14:17:14.102Z,41.67
2023-04-08T14:22:36.079Z,42.29
2023-04-08T14:27:59.023Z,42.43
2023-04-08T14:33:20.977Z,42.41
2023-04-08T14:38:42.780Z,41.50
2023-04-08T14:44:04.795Z,40.61
2023-04-08T14:49:26.725Z,39.94
2023-04-08T14:54:48.741Z,39.21
2023-04-08T15:00:11.012Z,39.51
2023-04-08T15:05:35.462Z,39.38
2023-04-08T15:10:58.523Z,39.13
2023-04-08T15:16:20.439Z,39.66
2023-04-08T15:21:42.345Z,40.55
2023-04-08T15:27:04.190Z,41.10
2023-04-08T15:32:26.295Z,42.46
2023-04-08T15:37:48.161Z,42.22
2023-04-08T15:43:10.121Z,43.06
2023-04-08T15:48:32.014Z,43.56
2023-04-08T15:53:53.840Z,43.92
2023-04-08T15:59:15.691Z,43.56
2023-04-08T16:04:37.637Z,43.50
2023-04-08T16:09:59.546Z,43.55
2023-04-08T16:15:21.487Z,43.38
2023-04-08T16:20:43.355Z,43.24
2023-04-08T16:26:05.530Z,42.52
2023-04-08T16:31:27.400Z,42.73
2023-04-08T16:36:49.333Z,42.66
2023-04-08T16:42:11.228Z,42.42
2023-04-08T16:47:33.836Z,42.59
2023-04-08T16:52:55.855Z,43.09
2023-04-08T16:58:17.693Z,42.70
2023-04-08T17:03:39.988Z,43.32
2023-04-08T17:09:02.671Z,43.36
2023-04-08T17:14:24.701Z,43.35
2023-04-08T17:19:46.618Z,43.79
2023-04-08T17:25:08.855Z,43.97
2023-04-08T17:30:30.702Z,44.81
2023-04-08T17:35:53.361Z,45.92
2023-04-08T17:41:21.582Z,47.46
2023-04-08T17:46:52.064Z,48.36
2023-04-08T17:52:13.879Z,49.27
2023-04-08T17:57:35.764Z,52.12
2023-04-08T18:02:57.783Z,56.88
2023-04-08T18:08:19.770Z,61.68
2023-04-08T18:13:41.671Z,65.32
2023-04-08T18:19:03.519Z,70.58
2023-04-08T18:24:25.392Z,74.74
2023-04-08T18:29:47.216Z,80.35
2023-04-08T18:35:09.660Z,83.65
2023-04-08T18:40:31.624Z,84.06
2023-04-08T18:45:53.477Z,84.27
2023-04-08T18:51:16.009Z,86.47
2023-04-08T18:56:37.905Z,86.10
2023-04-08T19:01:59.932Z,86.38
2023-04-08T19:07:22.061Z,89.50
2023-04-08T19:12:43.913Z,89.82
2023-04-08T19:18:05.813Z,89.82
2023-04-08T19:23:27.641Z,89.65
2023-04-08T19:28:49.884Z,89.59
2023-04-08T19:34:11.916Z,91.15
2023-04-08T19:39:33.900Z,92.28
2023-04-08T19:44:55.832Z,90.45
2023-04-08T19:50:17.694Z,90.74
2023-04-08T19:55:39.557Z,90.71
2023-04-08T20:01:01.494Z,90.95
2023-04-08T20:06:23.339Z,91.23
2023-04-08T20:11:45.265Z,93.53
2023-04-08T20:17:07.330Z,94.65
2023-04-08T20:22:29.150Z,94.14
2023-04-08T20:27:50.992Z,93.97
2023-04-08T20:33:12.926Z,96.07
2023-04-08T20:38:34.717Z,96.87
2023-04-08T20:43:56.519Z,97.36
2023-04-08T20:49:18.799Z,97.32
2023-04-08T20:54:40.662Z,97.68
2023-04-08T21:00:03.043Z,98.48
2023-04-08T21:05:25.221Z,100.00
2023-04-08T21:10:47.143Z,99.53
2023-04-08T21:16:09.338Z,100.00
2023-04-08T21:21:31.155Z,100.00
2023-04-08T21:26:53.434Z,100.00
2023-04-08T21:32:15.310Z,100.00
2023-04-08T21:37:37.279Z,100.00
2023-04-08T21:42:59.511Z,100.00
2023-04-08T21:48:21.441Z,100.00
2023-04-08T21:53:43.702Z,100.00
2023-04-08T21:59:05.640Z,100.00
2023-04-08T22:04:27.478Z,100.00
2023-04-08T22:09:49.284Z,100.00
2023-04-08T22:15:11.451Z,100.00
2023-04-08T22:20:33.281Z,100.00
2023-04-08T22:25:55.158Z,100.00
2023-04-08T22:31:17.022Z,100.00
2023-04-08T22:36:38.869Z,100.00
2023-04-08T22:42:00.705Z,100.00
2023-04-08T22:47:22.582Z,100.00
2023-04-08T22:52:44.420Z,100.00
2023-04-08T22:58:06.327Z,100.00
2023-04-08T23:03:28.272Z,100.00
2023-04-08T23:08:50.291Z,100.00
2023-04-08T23:14:12.353Z,100.00
2023-04-08T23:19:34.160Z,100.00
2023-04-08T23:24:56.344Z,100.00
2023-04-08T23:30:18.360Z,100.00
2023-04-08T23:35:40.241Z,100.00
2023-04-08T23:41:02.057Z,100.00
2023-04-08T23:46:23.910Z,100.00
2023-04-08T23:51:45.754Z,100.00
2023-04-08T23:57:07.575Z,100.00
